sensor_id;sensor_type;location;lat;lon;timestamp;pressure;altitude;pressure_sealevel;temperature;humidity
22241;BME280;11289;52.524;13.694;2024-03-17T00:02:21;101507.84;;;5.12;67.37
22241;BME280;11289;52.524;13.694;2024-03-17T00:04:47;101519.94;;;5.11;67.67
22241;BME280;11289;52.524;13.694;2024-03-17T00:07:13;101503.41;;;5.05;67.72
22241;BME280;11289;52.524;13.694;2024-03-17T00:09:40;101519.09;;;5.05;67.78
22241;BME280;11289;52.524;13.694;2024-03-17T00:12:07;101513.31;;;5.01;67.84
22241;BME280;11289;52.524;13.694;2024-03-17T00:14:34;101520.44;;;5.02;68.27
22241;BME280;11289;52.524;13.694;2024-03-17T00:17:02;101516.88;;;5.02;68.01
22241;BME280;11289;52.524;13.694;2024-03-17T00:19:31;101521.84;;;5.00;68.40
22241;BME280;11289;52.524;13.694;2024-03-17T00:21:57;101513.88;;;4.98;68.58
22241;BME280;11289;52.524;13.694;2024-03-17T00:24:24;101515.22;;;4.96;68.79
22241;BME280;11289;52.524;13.694;2024-03-17T00:26:50;101514.91;;;4.92;68.69
22241;BME280;11289;52.524;13.694;2024-03-17T00:29:16;101524.84;;;4.93;68.88
22241;BME280;11289;52.524;13.694;2024-03-17T00:31:42;101526.47;;;4.89;69.17
22241;BME280;11289;52.524;13.694;2024-03-17T00:34:08;101516.81;;;4.86;69.50
22241;BME280;11289;52.524;13.694;2024-03-17T00:36:35;101514.94;;;4.87;68.98
22241;BME280;11289;52.524;13.694;2024-03-17T00:39:01;101511.06;;;4.83;69.51
22241;BME280;11289;52.524;13.694;2024-03-17T00:41:27;101516.56;;;4.83;69.70
22241;BME280;11289;52.524;13.694;2024-03-17T00:43:52;101523.72;;;4.84;69.79
22241;BME280;11289;52.524;13.694;2024-03-17T00:46:20;101520.13;;;4.78;69.81
22241;BME280;11289;52.524;13.694;2024-03-17T00:48:48;101519.28;;;4.78;69.80
22241;BME280;11289;52.524;13.694;2024-03-17T00:51:15;101518.72;;;4.76;69.81
22241;BME280;11289;52.524;13.694;2024-03-17T00:53:41;101524.22;;;4.76;70.11
22241;BME280;11289;52.524;13.694;2024-03-17T00:56:07;101531.38;;;4.71;70.46
22241;BME280;11289;52.524;13.694;2024-03-17T00:58:33;101528.63;;;4.71;70.29
22241;BME280;11289;52.524;13.694;2024-03-17T01:00:59;101524.22;;;4.70;70.58
22241;BME280;11289;52.524;13.694;2024-03-17T01:03:25;101525.31;;;4.69;70.60
22241;BME280;11289;52.524;13.694;2024-03-17T01:05:51;101528.34;;;4.68;70.34
22241;BME280;11289;52.524;13.694;2024-03-17T01:08:18;101518.97;;;4.64;70.35
22241;BME280;11289;52.524;13.694;2024-03-17T01:10:46;101520.63;;;4.65;70.57
22241;BME280;11289;52.524;13.694;2024-03-17T01:13:16;101523.06;;;4.61;70.21
22241;BME280;11289;52.524;13.694;2024-03-17T01:15:42;101516.44;;;4.52;70.40
22241;BME280;11289;52.524;13.694;2024-03-17T01:18:08;101535.69;;;4.57;70.37
22241;BME280;11289;52.524;13.694;2024-03-17T01:20:35;101537.91;;;4.55;70.27
22241;BME280;11289;52.524;13.694;2024-03-17T01:23:01;101525.50;;;4.52;70.67
22241;BME280;11289;52.524;13.694;2024-03-17T01:25:27;101529.66;;;4.55;70.81
22241;BME280;11289;52.524;13.694;2024-03-17T01:27:55;101524.44;;;4.53;70.65
22241;BME280;11289;52.524;13.694;2024-03-17T01:30:24;101525.78;;;4.51;70.87
22241;BME280;11289;52.524;13.694;2024-03-17T01:32:51;101514.50;;;4.47;70.81
22241;BME280;11289;52.524;13.694;2024-03-17T01:35:17;101526.31;;;4.48;70.82
22241;BME280;11289;52.524;13.694;2024-03-17T01:37:43;101526.06;;;4.49;70.82
22241;BME280;11289;52.524;13.694;2024-03-17T01:40:09;101531.59;;;4.55;70.90
22241;BME280;11289;52.524;13.694;2024-03-17T01:42:40;101527.44;;;4.52;70.81
22241;BME280;11289;52.524;13.694;2024-03-17T01:45:24;101525.25;;;4.54;70.82
22241;BME280;11289;52.524;13.694;2024-03-17T01:47:52;101525.81;;;4.61;70.96
22241;BME280;11289;52.524;13.694;2024-03-17T01:50:18;101516.50;;;4.62;71.36
22241;BME280;11289;52.524;13.694;2024-03-17T01:52:46;101514.00;;;4.66;70.97
22241;BME280;11289;52.524;13.694;2024-03-17T01:55:13;101509.91;;;4.63;70.70
22241;BME280;11289;52.524;13.694;2024-03-17T01:57:40;101518.13;;;4.58;70.79
22241;BME280;11289;52.524;13.694;2024-03-17T02:00:06;101519.19;;;4.57;70.70
22241;BME280;11289;52.524;13.694;2024-03-17T02:02:34;101510.94;;;4.57;70.57
22241;BME280;11289;52.524;13.694;2024-03-17T02:05:01;101512.56;;;4.53;71.04
22241;BME280;11289;52.524;13.694;2024-03-17T02:07:28;101512.56;;;4.48;71.06
22241;BME280;11289;52.524;13.694;2024-03-17T02:09:56;101517.50;;;4.46;71.02
22241;BME280;11289;52.524;13.694;2024-03-17T02:12:23;101521.91;;;4.47;70.95
22241;BME280;11289;52.524;13.694;2024-03-17T02:14:49;101525.19;;;4.44;71.02
22241;BME280;11289;52.524;13.694;2024-03-17T02:17:15;101528.75;;;4.39;70.64
22241;BME280;11289;52.524;13.694;2024-03-17T02:19:41;101531.22;;;4.41;71.42
22241;BME280;11289;52.524;13.694;2024-03-17T02:22:16;101533.94;;;4.35;70.94
22241;BME280;11289;52.524;13.694;2024-03-17T02:24:43;101530.91;;;4.32;71.12
22241;BME280;11289;52.524;13.694;2024-03-17T02:27:09;101528.16;;;4.32;71.24
22241;BME280;11289;52.524;13.694;2024-03-17T02:29:36;101520.19;;;4.30;71.22
22241;BME280;11289;52.524;13.694;2024-03-17T02:32:03;101517.16;;;4.32;71.48
22241;BME280;11289;52.524;13.694;2024-03-17T02:34:37;101535.06;;;4.34;71.44
22241;BME280;11289;52.524;13.694;2024-03-17T02:37:03;101532.31;;;4.34;71.10
22241;BME280;11289;52.524;13.694;2024-03-17T02:39:31;101534.47;;;4.32;71.28
22241;BME280;11289;52.524;13.694;2024-03-17T02:42:07;101527.84;;;4.28;70.91
22241;BME280;11289;52.524;13.694;2024-03-17T02:44:34;101535.28;;;4.28;70.88
22241;BME280;11289;52.524;13.694;2024-03-17T02:47:02;101530.59;;;4.23;71.52
22241;BME280;11289;52.524;13.694;2024-03-17T02:49:30;101536.34;;;4.22;71.80
22241;BME280;11289;52.524;13.694;2024-03-17T02:52:07;101533.06;;;4.25;71.38
22241;BME280;11289;52.524;13.694;2024-03-17T02:54:35;101531.66;;;4.22;71.03
22241;BME280;11289;52.524;13.694;2024-03-17T02:57:02;101532.44;;;4.12;71.61
22241;BME280;11289;52.524;13.694;2024-03-17T02:59:28;101537.91;;;4.12;71.80
22241;BME280;11289;52.524;13.694;2024-03-17T03:01:55;101519.75;;;4.06;71.88
22241;BME280;11289;52.524;13.694;2024-03-17T03:04:21;101524.19;;;4.12;72.42
22241;BME280;11289;52.524;13.694;2024-03-17T03:06:47;101525.56;;;4.10;71.78
22241;BME280;11289;52.524;13.694;2024-03-17T03:09:13;101517.59;;;4.08;71.67
22241;BME280;11289;52.524;13.694;2024-03-17T03:11:40;101524.16;;;4.07;72.27
22241;BME280;11289;52.524;13.694;2024-03-17T03:14:07;101523.59;;;4.05;72.29
22241;BME280;11289;52.524;13.694;2024-03-17T03:16:33;101523.56;;;4.00;72.48
22241;BME280;11289;52.524;13.694;2024-03-17T03:18:59;101529.88;;;4.00;72.95
22241;BME280;11289;52.524;13.694;2024-03-17T03:21:25;101514.44;;;3.94;72.10
22241;BME280;11289;52.524;13.694;2024-03-17T03:23:51;101523.22;;;3.91;72.61
22241;BME280;11289;52.524;13.694;2024-03-17T03:26:18;101526.78;;;3.92;72.96
22241;BME280;11289;52.524;13.694;2024-03-17T03:28:44;101528.72;;;3.91;72.74
22241;BME280;11289;52.524;13.694;2024-03-17T03:31:13;101530.06;;;3.89;72.90
22241;BME280;11289;52.524;13.694;2024-03-17T03:33:40;101532.00;;;3.88;72.76
22241;BME280;11289;52.524;13.694;2024-03-17T03:36:11;101535.56;;;3.89;73.48
22241;BME280;11289;52.524;13.694;2024-03-17T03:38:37;101535.84;;;3.87;73.66
22241;BME280;11289;52.524;13.694;2024-03-17T03:41:10;101540.50;;;3.87;73.63
22241;BME280;11289;52.524;13.694;2024-03-17T03:43:37;101537.44;;;3.83;73.84
22241;BME280;11289;52.524;13.694;2024-03-17T03:46:03;101527.81;;;3.80;73.94
22241;BME280;11289;52.524;13.694;2024-03-17T03:48:30;101532.47;;;3.75;73.84
22241;BME280;11289;52.524;13.694;2024-03-17T03:50:56;101527.22;;;3.73;74.17
22241;BME280;11289;52.524;13.694;2024-03-17T03:53:22;101531.88;;;3.73;74.13
22241;BME280;11289;52.524;13.694;2024-03-17T03:55:48;101538.22;;;3.73;74.69
22241;BME280;11289;52.524;13.694;2024-03-17T03:58:14;101528.56;;;3.71;74.78
22241;BME280;11289;52.524;13.694;2024-03-17T04:00:41;101540.91;;;3.68;75.10
22241;BME280;11289;52.524;13.694;2024-03-17T04:03:07;101535.09;;;3.64;75.03
22241;BME280;11289;52.524;13.694;2024-03-17T04:05:33;101537.84;;;3.64;75.04
22241;BME280;11289;52.524;13.694;2024-03-17T04:08:00;101530.72;;;3.63;74.97
22241;BME280;11289;52.524;13.694;2024-03-17T04:10:26;101532.06;;;3.61;75.27
22241;BME280;11289;52.524;13.694;2024-03-17T04:12:53;101538.88;;;3.58;75.29
22241;BME280;11289;52.524;13.694;2024-03-17T04:15:19;101546.56;;;3.56;75.11
22241;BME280;11289;52.524;13.694;2024-03-17T04:17:45;101543.22;;;3.49;75.14
22241;BME280;11289;52.524;13.694;2024-03-17T04:20:11;101553.63;;;3.47;75.18
22241;BME280;11289;52.524;13.694;2024-03-17T04:22:42;101550.84;;;3.42;75.25
22241;BME280;11289;52.524;13.694;2024-03-17T04:25:12;101545.28;;;3.37;75.37
22241;BME280;11289;52.524;13.694;2024-03-17T04:27:38;101552.44;;;3.38;75.15
22241;BME280;11289;52.524;13.694;2024-03-17T04:30:05;101541.97;;;3.35;75.66
22241;BME280;11289;52.524;13.694;2024-03-17T04:32:32;101545.81;;;3.34;75.69
22241;BME280;11289;52.524;13.694;2024-03-17T04:34:59;101551.28;;;3.34;75.21
22241;BME280;11289;52.524;13.694;2024-03-17T04:37:25;101530.56;;;3.21;75.82
22241;BME280;11289;52.524;13.694;2024-03-17T04:39:51;101546.84;;;3.27;76.17
22241;BME280;11289;52.524;13.694;2024-03-17T04:42:18;101541.03;;;3.24;76.32
22241;BME280;11289;52.524;13.694;2024-03-17T04:44:44;101554.00;;;3.28;76.46
22241;BME280;11289;52.524;13.694;2024-03-17T04:47:11;101551.53;;;3.27;76.16
22241;BME280;11289;52.524;13.694;2024-03-17T04:49:39;101558.91;;;3.26;76.21
22241;BME280;11289;52.524;13.694;2024-03-17T04:52:05;101562.44;;;3.22;76.19
22241;BME280;11289;52.524;13.694;2024-03-17T04:54:33;101560.75;;;3.21;76.29
22241;BME280;11289;52.524;13.694;2024-03-17T04:56:59;101557.72;;;3.17;75.74
22241;BME280;11289;52.524;13.694;2024-03-17T04:59:25;101559.66;;;3.17;76.15
22241;BME280;11289;52.524;13.694;2024-03-17T05:01:51;101569.25;;;3.19;76.20
22241;BME280;11289;52.524;13.694;2024-03-17T05:04:18;101562.13;;;3.18;76.41
22241;BME280;11289;52.524;13.694;2024-03-17T05:06:44;101570.38;;;3.18;76.45
22241;BME280;11289;52.524;13.694;2024-03-17T05:09:14;101563.72;;;3.14;75.72
22241;BME280;11289;52.524;13.694;2024-03-17T05:11:40;101574.72;;;3.14;76.19
22241;BME280;11289;52.524;13.694;2024-03-17T05:14:07;101576.34;;;3.15;76.55
22241;BME280;11289;52.524;13.694;2024-03-17T05:16:33;101571.06;;;3.08;76.20
22241;BME280;11289;52.524;13.694;2024-03-17T05:18:59;101571.06;;;3.08;76.38
22241;BME280;11289;52.524;13.694;2024-03-17T05:21:26;101574.06;;;3.07;76.33
22241;BME280;11289;52.524;13.694;2024-03-17T05:23:56;101575.16;;;3.06;76.77
22241;BME280;11289;52.524;13.694;2024-03-17T05:26:24;101573.47;;;3.05;76.60
22241;BME280;11289;52.524;13.694;2024-03-17T05:28:50;101577.34;;;3.04;76.89
22241;BME280;11289;52.524;13.694;2024-03-17T05:31:16;101574.84;;;3.02;76.89
22241;BME280;11289;52.524;13.694;2024-03-17T05:33:44;101575.03;;;2.95;77.25
22241;BME280;11289;52.524;13.694;2024-03-17T05:36:10;101581.34;;;2.96;76.99
22241;BME280;11289;52.524;13.694;2024-03-17T05:38:36;101591.81;;;2.99;77.22
22241;BME280;11289;52.524;13.694;2024-03-17T05:41:04;101591.81;;;2.99;77.38
22241;BME280;11289;52.524;13.694;2024-03-17T05:43:35;101584.41;;;3.00;77.31
22241;BME280;11289;52.524;13.694;2024-03-17T05:46:09;101591.56;;;3.01;77.26
22241;BME280;11289;52.524;13.694;2024-03-17T05:48:36;101592.38;;;3.01;76.98
22241;BME280;11289;52.524;13.694;2024-03-17T05:51:04;101595.41;;;3.00;77.30
22241;BME280;11289;52.524;13.694;2024-03-17T05:53:31;101595.19;;;3.06;77.05
22241;BME280;11289;52.524;13.694;2024-03-17T05:56:01;101594.63;;;3.04;76.77
22241;BME280;11289;52.524;13.694;2024-03-17T05:58:27;101603.41;;;3.06;76.96
22241;BME280;11289;52.524;13.694;2024-03-17T06:00:53;101597.38;;;3.04;76.97
22241;BME280;11289;52.524;13.694;2024-03-17T06:03:19;101606.66;;;3.03;76.65
22241;BME280;11289;52.524;13.694;2024-03-17T06:05:47;101604.81;;;3.09;76.82
22241;BME280;11289;52.524;13.694;2024-03-17T06:08:14;101624.09;;;3.14;76.78
22241;BME280;11289;52.524;13.694;2024-03-17T06:10:45;101615.88;;;3.14;76.48
22241;BME280;11289;52.524;13.694;2024-03-17T06:13:12;101625.19;;;3.13;76.14
22241;BME280;11289;52.524;13.694;2024-03-17T06:15:39;101619.44;;;3.14;76.71
22241;BME280;11289;52.524;13.694;2024-03-17T06:18:06;101630.75;;;3.18;76.56
22241;BME280;11289;52.524;13.694;2024-03-17T06:20:34;101628.56;;;3.20;76.22
22241;BME280;11289;52.524;13.694;2024-03-17T06:23:00;101636.03;;;3.25;76.65
22241;BME280;11289;52.524;13.694;2024-03-17T06:25:26;101628.41;;;3.32;76.94
22241;BME280;11289;52.524;13.694;2024-03-17T06:27:53;101629.31;;;3.38;76.93
22241;BME280;11289;52.524;13.694;2024-03-17T06:30:20;101629.94;;;3.45;76.28
22241;BME280;11289;52.524;13.694;2024-03-17T06:32:47;101639.34;;;3.54;76.66
22241;BME280;11289;52.524;13.694;2024-03-17T06:35:13;101641.03;;;3.55;76.60
22241;BME280;11289;52.524;13.694;2024-03-17T06:37:47;101654.59;;;3.67;76.83
22241;BME280;11289;52.524;13.694;2024-03-17T06:40:14;101649.22;;;3.77;76.64
22241;BME280;11289;52.524;13.694;2024-03-17T06:42:41;101645.94;;;3.80;76.39
22241;BME280;11289;52.524;13.694;2024-03-17T06:45:07;101659.53;;;3.92;76.05
22241;BME280;11289;52.524;13.694;2024-03-17T06:47:35;101652.66;;;3.95;75.73
22241;BME280;11289;52.524;13.694;2024-03-17T06:50:02;101655.47;;;4.00;75.75
22241;BME280;11289;52.524;13.694;2024-03-17T06:52:29;101653.63;;;4.11;75.69
22241;BME280;11289;52.524;13.694;2024-03-17T06:54:55;101659.75;;;4.18;75.36
22241;BME280;11289;52.524;13.694;2024-03-17T06:57:21;101663.38;;;4.24;75.49
22241;BME280;11289;52.524;13.694;2024-03-17T06:59:47;101658.78;;;4.34;75.37
22241;BME280;11289;52.524;13.694;2024-03-17T07:02:14;101671.00;;;4.49;74.80
22241;BME280;11289;52.524;13.694;2024-03-17T07:04:44;101674.34;;;4.56;74.81
22241;BME280;11289;52.524;13.694;2024-03-17T07:07:10;101672.16;;;4.58;74.05
22241;BME280;11289;52.524;13.694;2024-03-17T07:09:36;101681.00;;;4.65;74.00
22241;BME280;11289;52.524;13.694;2024-03-17T07:12:02;101675.84;;;4.74;73.88
22241;BME280;11289;52.524;13.694;2024-03-17T07:14:28;101686.56;;;4.76;72.83
22241;BME280;11289;52.524;13.694;2024-03-17T07:16:54;101684.38;;;4.78;72.32
22241;BME280;11289;52.524;13.694;2024-03-17T07:19:20;101694.88;;;4.81;72.54
22241;BME280;11289;52.524;13.694;2024-03-17T07:21:46;101688.31;;;4.87;73.21
22241;BME280;11289;52.524;13.694;2024-03-17T07:24:11;101691.69;;;5.04;72.30
22241;BME280;11289;52.524;13.694;2024-03-17T07:26:37;101691.16;;;5.08;72.76
22241;BME280;11289;52.524;13.694;2024-03-17T07:29:03;101700.88;;;5.20;71.57
22241;BME280;11289;52.524;13.694;2024-03-17T07:31:29;101696.22;;;5.26;71.89
22241;BME280;11289;52.524;13.694;2024-03-17T07:33:55;101699.50;;;5.28;69.53
22241;BME280;11289;52.524;13.694;2024-03-17T07:36:21;101688.81;;;5.32;70.37
22241;BME280;11289;52.524;13.694;2024-03-17T07:38:47;101704.59;;;5.52;69.48
22241;BME280;11289;52.524;13.694;2024-03-17T07:41:14;101713.47;;;5.74;69.42
22241;BME280;11289;52.524;13.694;2024-03-17T07:43:40;101716.81;;;5.87;69.63
22241;BME280;11289;52.524;13.694;2024-03-17T07:46:08;101716.84;;;5.97;68.82
22241;BME280;11289;52.524;13.694;2024-03-17T07:48:42;101712.72;;;6.15;68.85
22241;BME280;11289;52.524;13.694;2024-03-17T07:51:10;101710.56;;;6.38;67.31
22241;BME280;11289;52.524;13.694;2024-03-17T07:53:38;101714.69;;;6.61;68.16
22241;BME280;11289;52.524;13.694;2024-03-17T07:56:09;101714.94;;;6.65;65.07
22241;BME280;11289;52.524;13.694;2024-03-17T07:58:36;101721.31;;;6.65;65.26
22241;BME280;11289;52.524;13.694;2024-03-17T08:01:05;101724.03;;;6.86;66.20
22241;BME280;11289;52.524;13.694;2024-03-17T08:03:34;101714.88;;;7.01;65.42
22241;BME280;11289;52.524;13.694;2024-03-17T08:06:01;101712.41;;;6.99;63.74
22241;BME280;11289;52.524;13.694;2024-03-17T08:08:28;101721.81;;;6.93;63.63
22241;BME280;11289;52.524;13.694;2024-03-17T08:10:54;101711.84;;;6.97;64.14
22241;BME280;11289;52.524;13.694;2024-03-17T08:13:21;101714.28;;;7.19;63.85
22241;BME280;11289;52.524;13.694;2024-03-17T08:15:57;101717.88;;;7.25;61.72
22241;BME280;11289;52.524;13.694;2024-03-17T08:18:24;101713.69;;;7.27;61.96
22241;BME280;11289;52.524;13.694;2024-03-17T08:20:50;101711.47;;;7.35;60.05
22241;BME280;11289;52.524;13.694;2024-03-17T08:23:16;101715.09;;;7.20;60.67
22241;BME280;11289;52.524;13.694;2024-03-17T08:25:42;101720.06;;;7.23;61.03
22241;BME280;11289;52.524;13.694;2024-03-17T08:28:08;101722.28;;;7.21;60.76
22241;BME280;11289;52.524;13.694;2024-03-17T08:30:34;101723.94;;;7.32;61.23
22241;BME280;11289;52.524;13.694;2024-03-17T08:33:01;101715.84;;;7.51;60.38
22241;BME280;11289;52.524;13.694;2024-03-17T08:35:27;101717.16;;;7.59;58.89
22241;BME280;11289;52.524;13.694;2024-03-17T08:37:53;101707.78;;;7.60;59.26
22241;BME280;11289;52.524;13.694;2024-03-17T08:40:22;101705.25;;;7.69;59.57
22241;BME280;11289;52.524;13.694;2024-03-17T08:42:49;101710.72;;;7.74;59.61
22241;BME280;11289;52.524;13.694;2024-03-17T08:45:14;101709.09;;;7.67;58.00
22241;BME280;11289;52.524;13.694;2024-03-17T08:47:42;101718.84;;;7.55;58.62
22241;BME280;11289;52.524;13.694;2024-03-17T08:50:08;101714.94;;;7.61;59.32
22241;BME280;11289;52.524;13.694;2024-03-17T08:52:34;101710.25;;;7.61;58.33
22241;BME280;11289;52.524;13.694;2024-03-17T08:55:00;101722.13;;;7.62;58.48
22241;BME280;11289;52.524;13.694;2024-03-17T08:57:29;101717.69;;;7.61;58.18
22241;BME280;11289;52.524;13.694;2024-03-17T08:59:55;101722.63;;;7.74;57.83
22241;BME280;11289;52.524;13.694;2024-03-17T09:02:21;101716.84;;;8.15;59.45
22241;BME280;11289;52.524;13.694;2024-03-17T09:04:47;101714.59;;;8.57;55.60
22241;BME280;11289;52.524;13.694;2024-03-17T09:07:13;101735.56;;;8.93;55.50
22241;BME280;11289;52.524;13.694;2024-03-17T09:09:41;101726.72;;;9.20;54.47
22241;BME280;11289;52.524;13.694;2024-03-17T09:12:08;101720.13;;;9.59;53.04
22241;BME280;11289;52.524;13.694;2024-03-17T09:14:34;101724.75;;;9.88;52.41
22241;BME280;11289;52.524;13.694;2024-03-17T09:17:00;101725.69;;;9.78;51.13
22241;BME280;11289;52.524;13.694;2024-03-17T09:19:26;101731.31;;;9.73;50.52
22241;BME280;11289;52.524;13.694;2024-03-17T09:21:51;101717.75;;;9.71;50.76
22241;BME280;11289;52.524;13.694;2024-03-17T09:24:17;101734.38;;;9.71;51.89
22241;BME280;11289;52.524;13.694;2024-03-17T09:26:43;101726.44;;;9.65;51.20
22241;BME280;11289;52.524;13.694;2024-03-17T09:29:09;101732.00;;;9.65;51.52
22241;BME280;11289;52.524;13.694;2024-03-17T09:31:35;101735.75;;;9.74;51.59
22241;BME280;11289;52.524;13.694;2024-03-17T09:34:02;101725.66;;;9.83;52.22
22241;BME280;11289;52.524;13.694;2024-03-17T09:36:28;101731.56;;;9.96;51.04
22241;BME280;11289;52.524;13.694;2024-03-17T09:38:54;101716.13;;;9.89;51.07
22241;BME280;11289;52.524;13.694;2024-03-17T09:41:21;101731.03;;;9.74;50.60
22241;BME280;11289;52.524;13.694;2024-03-17T09:43:48;101732.59;;;9.62;50.61
22241;BME280;11289;52.524;13.694;2024-03-17T09:46:18;101729.66;;;9.53;50.55
22241;BME280;11289;52.524;13.694;2024-03-17T09:48:45;101726.66;;;9.68;52.36
22241;BME280;11289;52.524;13.694;2024-03-17T09:51:29;101722.63;;;9.80;49.83
22241;BME280;11289;52.524;13.694;2024-03-17T09:53:55;101724.81;;;9.83;51.02
22241;BME280;11289;52.524;13.694;2024-03-17T09:56:21;101724.19;;;9.86;51.42
22241;BME280;11289;52.524;13.694;2024-03-17T09:58:51;101736.13;;;9.86;51.59
22241;BME280;11289;52.524;13.694;2024-03-17T10:01:17;101731.03;;;9.74;50.83
22241;BME280;11289;52.524;13.694;2024-03-17T10:06:30;101725.16;;;9.57;52.36
22241;BME280;11289;52.524;13.694;2024-03-17T10:08:58;101728.72;;;10.20;54.05
22241;BME280;11289;52.524;13.694;2024-03-17T10:11:32;101722.38;;;10.85;50.78
22241;BME280;11289;52.524;13.694;2024-03-17T10:14:09;101718.09;;;11.35;49.63
22241;BME280;11289;52.524;13.694;2024-03-17T10:16:36;101716.31;;;11.53;48.05
22241;BME280;11289;52.524;13.694;2024-03-17T10:19:10;101718.78;;;11.54;46.62
22241;BME280;11289;52.524;13.694;2024-03-17T10:21:36;101715.91;;;11.45;46.98
22241;BME280;11289;52.524;13.694;2024-03-17T10:31:51;101704.00;;;13.26;45.12
22241;BME280;11289;52.524;13.694;2024-03-17T10:34:18;101696.94;;;13.29;44.50
22241;BME280;11289;52.524;13.694;2024-03-17T10:36:45;101699.69;;;13.20;44.20
22241;BME280;11289;52.524;13.694;2024-03-17T10:39:28;101711.22;;;12.87;43.74
22241;BME280;11289;52.524;13.694;2024-03-17T10:42:03;101708.97;;;12.66;44.13
22241;BME280;11289;52.524;13.694;2024-03-17T10:44:30;101713.19;;;12.95;45.04
22241;BME280;11289;52.524;13.694;2024-03-17T10:46:57;101703.75;;;13.36;44.00
22241;BME280;11289;52.524;13.694;2024-03-17T10:49:28;101715.66;;;13.86;43.40
22241;BME280;11289;52.524;13.694;2024-03-17T10:52:00;101712.53;;;13.79;40.97
22241;BME280;11289;52.524;13.694;2024-03-17T10:54:26;101710.31;;;13.40;41.07
22241;BME280;11289;52.524;13.694;2024-03-17T10:59:39;101707.47;;;13.32;41.75
22241;BME280;11289;52.524;13.694;2024-03-17T11:02:22;101711.28;;;13.04;41.24
22241;BME280;11289;52.524;13.694;2024-03-17T11:04:54;101711.34;;;12.82;42.26
22241;BME280;11289;52.524;13.694;2024-03-17T11:07:21;101712.53;;;12.89;41.89
22241;BME280;11289;52.524;13.694;2024-03-17T11:09:49;101714.53;;;12.66;42.19
22241;BME280;11289;52.524;13.694;2024-03-17T11:12:45;101718.25;;;12.62;43.13
22241;BME280;11289;52.524;13.694;2024-03-17T11:17:49;101719.56;;;11.96;43.73
22241;BME280;11289;52.524;13.694;2024-03-17T11:20:25;101709.97;;;12.02;43.81
22241;BME280;11289;52.524;13.694;2024-03-17T11:22:53;101717.94;;;11.81;44.43
22241;BME280;11289;52.524;13.694;2024-03-17T11:27:54;101718.75;;;11.82;43.94
22241;BME280;11289;52.524;13.694;2024-03-17T11:39:08;101711.19;;;11.18;45.15
22241;BME280;11289;52.524;13.694;2024-03-17T11:41:46;101704.56;;;10.86;45.99
22241;BME280;11289;52.524;13.694;2024-03-17T11:47:04;101706.84;;;11.12;44.93
22241;BME280;11289;52.524;13.694;2024-03-17T11:49:37;101697.91;;;11.15;45.85
22241;BME280;11289;52.524;13.694;2024-03-17T11:52:11;101708.47;;;11.68;45.78
22241;BME280;11289;52.524;13.694;2024-03-17T11:54:40;101704.78;;;12.32;45.16
22241;BME280;11289;52.524;13.694;2024-03-17T11:57:11;101701.81;;;12.51;42.39
22241;BME280;11289;52.524;13.694;2024-03-17T11:59:39;101686.69;;;12.44;43.26
22241;BME280;11289;52.524;13.694;2024-03-17T12:02:19;101705.03;;;12.67;42.54
22241;BME280;11289;52.524;13.694;2024-03-17T12:04:46;101704.66;;;12.60;42.13
22241;BME280;11289;52.524;13.694;2024-03-17T12:07:17;101689.59;;;12.39;41.59
22241;BME280;11289;52.524;13.694;2024-03-17T12:09:44;101707.41;;;12.29;43.14
22241;BME280;11289;52.524;13.694;2024-03-17T12:14:49;101701.53;;;12.84;43.27
22241;BME280;11289;52.524;13.694;2024-03-17T12:17:21;101694.44;;;12.78;40.85
22241;BME280;11289;52.524;13.694;2024-03-17T12:19:47;101702.78;;;12.47;41.66
22241;BME280;11289;52.524;13.694;2024-03-17T12:22:21;101690.81;;;12.24;41.79
22241;BME280;11289;52.524;13.694;2024-03-17T12:24:52;101699.47;;;12.22;42.08
22241;BME280;11289;52.524;13.694;2024-03-17T12:27:25;101698.78;;;12.16;42.40
22241;BME280;11289;52.524;13.694;2024-03-17T12:29:55;101697.34;;;12.19;42.71
22241;BME280;11289;52.524;13.694;2024-03-17T12:32:25;101690.50;;;12.25;41.76
22241;BME280;11289;52.524;13.694;2024-03-17T12:34:55;101696.16;;;11.97;42.13
22241;BME280;11289;52.524;13.694;2024-03-17T12:37:24;101695.69;;;11.67;42.89
22241;BME280;11289;52.524;13.694;2024-03-17T12:39:56;101680.97;;;11.67;44.41
22241;BME280;11289;52.524;13.694;2024-03-17T12:42:27;101681.59;;;11.64;44.02
22241;BME280;11289;52.524;13.694;2024-03-17T12:44:55;101677.88;;;11.68;44.32
22241;BME280;11289;52.524;13.694;2024-03-17T12:47:25;101674.47;;;12.08;43.23
22241;BME280;11289;52.524;13.694;2024-03-17T12:49:57;101670.25;;;12.11;43.61
22241;BME280;11289;52.524;13.694;2024-03-17T12:52:24;101675.13;;;11.91;42.18
22241;BME280;11289;52.524;13.694;2024-03-17T12:55:00;101683.81;;;11.76;43.07
22241;BME280;11289;52.524;13.694;2024-03-17T12:57:45;101677.25;;;11.72;44.09
22241;BME280;11289;52.524;13.694;2024-03-17T13:00:30;101679.53;;;11.56;43.00
22241;BME280;11289;52.524;13.694;2024-03-17T13:03:04;101676.78;;;11.42;43.49
22241;BME280;11289;52.524;13.694;2024-03-17T13:05:30;101674.31;;;11.26;43.98
22241;BME280;11289;52.524;13.694;2024-03-17T13:07:57;101679.84;;;11.54;45.43
22241;BME280;11289;52.524;13.694;2024-03-17T13:10:27;101689.91;;;11.78;43.97
22241;BME280;11289;52.524;13.694;2024-03-17T13:13:03;101685.81;;;11.61;43.34
22241;BME280;11289;52.524;13.694;2024-03-17T13:15:30;101685.22;;;11.37;43.65
22241;BME280;11289;52.524;13.694;2024-03-17T13:17:57;101682.75;;;11.35;43.66
22241;BME280;11289;52.524;13.694;2024-03-17T13:20:24;101687.41;;;11.26;44.26
22241;BME280;11289;52.524;13.694;2024-03-17T13:22:50;101680.09;;;11.30;44.76
22241;BME280;11289;52.524;13.694;2024-03-17T13:25:18;101673.38;;;11.31;44.48